Date,TemperatureHighF,TemperatureAvgF,TemperatureLowF,DewpointHighF,DewpointAvgF,DewpointLowF,HumidityHigh,HumidityAvg,HumidityLow,PressureMaxIn,PressureMinIn,WindSpeedMaxMPH,WindSpeedAvgMPH,GustSpeedMaxMPH,PrecipitationSumIn
2013-1-1,49.9,48.6,46.2,49.4,41.7,26.7,99,80,44,30.07,29.87,3,0,4,0.35
2013-1-2,51.6,48.5,44.6,50.5,45.4,40.4,99,89,72,30.08,29.84,7,1,9,0.08
2013-1-3,44.5,40.6,30.9,40.9,37.0,28.9,94,87,79,30.22,30.03,6,2,9,0.00
2013-1-4,51.6,36.8,24.7,31.3,23.2,16.6,95,64,27,30.29,30.16,4,1,8,0.00
2013-1-5,47.4,36.8,23.8,32.8,23.3,19.0,84,60,34,30.34,30.18,3,0,6,0.00
2013-1-6,55.4,45.0,38.0,41.4,36.5,28.4,87,73,58,30.17,29.98,5,1,9,0.02
2013-1-7,51.6,39.1,27.6,30.9,27.9,25.3,92,67,38,30.36,30.14,5,1,7,0.00
2013-1-8,51.6,39.6,26.6,40.0,32.6,23.9,91,77,56,30.40,30.29,3,0,4,0.00
2013-1-9,64.7,52.9,42.1,52.2,45.9,38.7,90,78,60,30.38,30.29,2,0,5,0.00
2013-1-10,68.3,56.8,45.7,54.9,49.1,44.7,98,78,53,30.42,30.27,4,0,6,0.00
2013-1-11,55.1,50.2,47.4,51.6,49.3,46.9,100,97,82,30.29,30.08,5,2,5,0.13
2013-1-12,72.0,60.1,48.6,65.3,56.7,48.3,100,90,70,30.09,30.00,4,1,6,0.00
2013-1-13,71.8,63.4,58.6,61.3,58.9,56.9,94,86,66,30.05,29.96,4,1,8,0.00
2013-1-14,67.1,63.3,59.6,65.6,61.8,58.2,98,95,87,30.04,29.96,3,1,7,0.17
2013-1-15,63.9,50.6,42.3,61.5,49.7,41.8,98,97,90,30.08,29.98,9,5,13,0.08
2013-1-16,50.5,46.3,42.3,50.2,45.8,41.8,99,98,97,29.98,29.90,6,2,9,0.18
2013-1-17,52.2,46.6,34.0,51.9,45.6,32.7,99,96,89,30.13,29.68,17,6,28,1.70
2013-1-18,49.6,38.2,30.1,34.0,27.9,20.9,97,70,33,30.43,30.12,5,1,7,0.00
2013-1-19,53.5,39.6,25.4,33.2,26.1,21.6,95,63,29,30.43,30.12,4,1,5,0.01
2013-1-20,64.2,47.9,32.1,36.4,28.8,21.4,81,50,29,30.11,29.95,4,1,6,0.00
2013-1-21,59.9,43.4,27.8,33.6,24.3,12.8,91,53,25,30.01,29.85,13,1,15,0.00
2013-1-22,41.3,35.4,26.4,15.6,5.9,-5.3,52,30,14,30.20,29.95,11,4,16,0.00
2013-1-23,46.8,34.1,21.0,26.8,16.3,3.8,78,50,27,30.29,30.01,3,1,9,0.00
2013-1-24,49.4,38.8,25.3,32.2,16.6,3.5,77,44,21,30.42,29.93,10,3,22,0.00
2013-1-25,26.7,24.8,21.0,23.2,14.3,3.3,91,66,38,30.44,30.07,4,0,9,0.03
2013-1-26,48.3,32.9,23.8,37.2,28.1,21.6,96,84,49,30.29,30.06,2,0,5,0.02
2013-1-27,45.2,36.2,26.6,29.5,26.6,23.6,93,70,47,30.49,30.29,5,1,10,0.00
2013-1-28,50.5,42.6,35.3,46.1,34.5,27.5,90,73,61,30.42,30.19,5,1,12,0.00
2013-1-29,47.3,46.3,45.4,44.8,44.1,43.5,93,92,91,30.19,30.17,1,0,4,0.00
2013-1-30,72.3,64.4,49.1,62.6,58.8,43.8,96,82,62,29.93,29.36,11,6,23,0.93
2013-1-31,50.4,43.7,36.9,44.0,26.1,15.6,84,52,25,29.96,29.47,8,3,16,0.01